sensor_id;sensor_type;location;lat;lon;timestamp;P1;durP1;ratioP1;P2;durP2;ratioP2
9436;SDS011;4757;59.334;18.034;2023-03-29T00:02:24;2.63;;;1.70;;
9436;SDS011;4757;59.334;18.034;2023-03-29T00:04:59;7.13;;;1.83;;
9436;SDS011;4757;59.334;18.034;2023-03-29T00:07:30;3.33;;;1.63;;
9436;SDS011;4757;59.334;18.034;2023-03-29T00:10:00;3.73;;;2.37;;
9436;SDS011;4757;59.334;18.034;2023-03-29T00:12:30;5.90;;;2.03;;
9436;SDS011;4757;59.334;18.034;2023-03-29T00:14:57;5.87;;;1.90;;
9436;SDS011;4757;59.334;18.034;2023-03-29T00:17:25;2.53;;;1.23;;
9436;SDS011;4757;59.334;18.034;2023-03-29T00:19:53;3.10;;;1.77;;
9436;SDS011;4757;59.334;18.034;2023-03-29T00:22:20;2.10;;;1.30;;
9436;SDS011;4757;59.334;18.034;2023-03-29T00:24:47;2.93;;;1.23;;
9436;SDS011;4757;59.334;18.034;2023-03-29T00:27:20;1.50;;;1.40;;
9436;SDS011;4757;59.334;18.034;2023-03-29T00:29:47;3.80;;;1.43;;
9436;SDS011;4757;59.334;18.034;2023-03-29T00:32:15;3.13;;;1.50;;
9436;SDS011;4757;59.334;18.034;2023-03-29T00:34:42;3.93;;;1.37;;
9436;SDS011;4757;59.334;18.034;2023-03-29T00:37:11;4.47;;;1.53;;
9436;SDS011;4757;59.334;18.034;2023-03-29T00:39:40;1.87;;;1.20;;
9436;SDS011;4757;59.334;18.034;2023-03-29T00:42:10;3.00;;;1.10;;
9436;SDS011;4757;59.334;18.034;2023-03-29T00:44:56;2.47;;;1.33;;
9436;SDS011;4757;59.334;18.034;2023-03-29T00:52:59;1.87;;;1.23;;
9436;SDS011;4757;59.334;18.034;2023-03-29T00:58:24;2.87;;;1.00;;
9436;SDS011;4757;59.334;18.034;2023-03-29T01:01:00;3.30;;;1.53;;
9436;SDS011;4757;59.334;18.034;2023-03-29T01:03:36;2.77;;;1.43;;
9436;SDS011;4757;59.334;18.034;2023-03-29T01:06:14;2.30;;;1.50;;
9436;SDS011;4757;59.334;18.034;2023-03-29T01:08:46;2.23;;;1.20;;
9436;SDS011;4757;59.334;18.034;2023-03-29T01:11:24;1.90;;;1.50;;
9436;SDS011;4757;59.334;18.034;2023-03-29T01:13:57;1.93;;;1.73;;
9436;SDS011;4757;59.334;18.034;2023-03-29T01:16:30;1.50;;;1.37;;
9436;SDS011;4757;59.334;18.034;2023-03-29T01:18:58;1.40;;;1.30;;
9436;SDS011;4757;59.334;18.034;2023-03-29T01:26:40;2.80;;;1.60;;
9436;SDS011;4757;59.334;18.034;2023-03-29T01:29:23;5.13;;;1.83;;
9436;SDS011;4757;59.334;18.034;2023-03-29T01:32:03;2.10;;;1.40;;
9436;SDS011;4757;59.334;18.034;2023-03-29T01:34:44;2.73;;;1.43;;
9436;SDS011;4757;59.334;18.034;2023-03-29T01:37:37;6.10;;;2.07;;
9436;SDS011;4757;59.334;18.034;2023-03-29T01:40:09;9.50;;;1.97;;
9436;SDS011;4757;59.334;18.034;2023-03-29T01:42:48;5.53;;;1.80;;
9436;SDS011;4757;59.334;18.034;2023-03-29T01:45:29;4.60;;;1.37;;
9436;SDS011;4757;59.334;18.034;2023-03-29T01:50:43;1.63;;;1.20;;
9436;SDS011;4757;59.334;18.034;2023-03-29T01:56:03;3.37;;;1.50;;
9436;SDS011;4757;59.334;18.034;2023-03-29T01:58:38;2.33;;;1.43;;
9436;SDS011;4757;59.334;18.034;2023-03-29T02:01:10;1.80;;;1.60;;
9436;SDS011;4757;59.334;18.034;2023-03-29T02:03:44;1.57;;;1.23;;
9436;SDS011;4757;59.334;18.034;2023-03-29T02:06:19;4.47;;;1.50;;
9436;SDS011;4757;59.334;18.034;2023-03-29T02:08:50;2.57;;;1.90;;
9436;SDS011;4757;59.334;18.034;2023-03-29T02:11:20;2.10;;;1.67;;
9436;SDS011;4757;59.334;18.034;2023-03-29T02:13:50;2.83;;;1.70;;
9436;SDS011;4757;59.334;18.034;2023-03-29T02:16:18;5.60;;;1.93;;
9436;SDS011;4757;59.334;18.034;2023-03-29T02:18:46;1.63;;;1.27;;
9436;SDS011;4757;59.334;18.034;2023-03-29T02:21:18;4.90;;;1.20;;
9436;SDS011;4757;59.334;18.034;2023-03-29T02:24:02;1.80;;;1.60;;
9436;SDS011;4757;59.334;18.034;2023-03-29T02:26:34;5.47;;;2.67;;
9436;SDS011;4757;59.334;18.034;2023-03-29T02:29:01;3.43;;;1.83;;
9436;SDS011;4757;59.334;18.034;2023-03-29T02:36:49;4.13;;;1.57;;
9436;SDS011;4757;59.334;18.034;2023-03-29T02:39:19;2.90;;;1.60;;
9436;SDS011;4757;59.334;18.034;2023-03-29T02:41:48;2.50;;;1.90;;
9436;SDS011;4757;59.334;18.034;2023-03-29T02:44:18;3.03;;;2.17;;
9436;SDS011;4757;59.334;18.034;2023-03-29T02:46:48;4.07;;;1.90;;
9436;SDS011;4757;59.334;18.034;2023-03-29T02:49:18;2.60;;;2.20;;
9436;SDS011;4757;59.334;18.034;2023-03-29T02:51:46;3.40;;;1.90;;
9436;SDS011;4757;59.334;18.034;2023-03-29T02:54:18;3.20;;;1.80;;
9436;SDS011;4757;59.334;18.034;2023-03-29T02:56:58;4.50;;;1.70;;
9436;SDS011;4757;59.334;18.034;2023-03-29T02:59:27;3.93;;;2.00;;
9436;SDS011;4757;59.334;18.034;2023-03-29T03:01:59;2.33;;;1.77;;
9436;SDS011;4757;59.334;18.034;2023-03-29T03:04:26;3.80;;;1.47;;
9436;SDS011;4757;59.334;18.034;2023-03-29T03:06:54;2.67;;;1.53;;
9436;SDS011;4757;59.334;18.034;2023-03-29T03:09:22;5.10;;;1.70;;
9436;SDS011;4757;59.334;18.034;2023-03-29T03:11:49;7.83;;;2.13;;
9436;SDS011;4757;59.334;18.034;2023-03-29T03:14:16;5.13;;;2.00;;
9436;SDS011;4757;59.334;18.034;2023-03-29T03:16:44;2.20;;;1.77;;
9436;SDS011;4757;59.334;18.034;2023-03-29T03:19:11;3.73;;;2.13;;
9436;SDS011;4757;59.334;18.034;2023-03-29T03:21:39;2.10;;;1.60;;
9436;SDS011;4757;59.334;18.034;2023-03-29T03:24:06;2.10;;;1.70;;
9436;SDS011;4757;59.334;18.034;2023-03-29T03:26:33;3.50;;;2.00;;
9436;SDS011;4757;59.334;18.034;2023-03-29T03:29:01;3.17;;;1.80;;
9436;SDS011;4757;59.334;18.034;2023-03-29T03:31:28;4.70;;;2.13;;
9436;SDS011;4757;59.334;18.034;2023-03-29T03:33:56;2.87;;;1.70;;
9436;SDS011;4757;59.334;18.034;2023-03-29T03:36:24;3.27;;;2.03;;
9436;SDS011;4757;59.334;18.034;2023-03-29T03:38:54;3.70;;;2.40;;
9436;SDS011;4757;59.334;18.034;2023-03-29T03:41:21;6.67;;;2.30;;
9436;SDS011;4757;59.334;18.034;2023-03-29T03:43:48;4.03;;;2.07;;
9436;SDS011;4757;59.334;18.034;2023-03-29T03:46:15;4.50;;;2.20;;
9436;SDS011;4757;59.334;18.034;2023-03-29T03:48:43;5.17;;;3.20;;
9436;SDS011;4757;59.334;18.034;2023-03-29T03:51:11;7.57;;;3.03;;
9436;SDS011;4757;59.334;18.034;2023-03-29T03:53:39;6.10;;;2.50;;
9436;SDS011;4757;59.334;18.034;2023-03-29T03:56:07;3.10;;;1.87;;
9436;SDS011;4757;59.334;18.034;2023-03-29T03:58:34;5.10;;;2.80;;
9436;SDS011;4757;59.334;18.034;2023-03-29T04:01:02;2.87;;;1.97;;
9436;SDS011;4757;59.334;18.034;2023-03-29T04:03:30;6.63;;;2.23;;
9436;SDS011;4757;59.334;18.034;2023-03-29T04:05:59;2.77;;;2.20;;
9436;SDS011;4757;59.334;18.034;2023-03-29T04:08:27;4.67;;;2.20;;
9436;SDS011;4757;59.334;18.034;2023-03-29T04:10:55;3.93;;;2.03;;
9436;SDS011;4757;59.334;18.034;2023-03-29T04:13:23;2.87;;;2.40;;
9436;SDS011;4757;59.334;18.034;2023-03-29T04:15:52;4.30;;;2.20;;
9436;SDS011;4757;59.334;18.034;2023-03-29T04:18:25;4.20;;;2.50;;
9436;SDS011;4757;59.334;18.034;2023-03-29T04:20:53;5.17;;;2.47;;
9436;SDS011;4757;59.334;18.034;2023-03-29T04:23:20;3.40;;;2.07;;
9436;SDS011;4757;59.334;18.034;2023-03-29T04:25:47;6.63;;;3.00;;
9436;SDS011;4757;59.334;18.034;2023-03-29T04:28:14;3.47;;;2.23;;
9436;SDS011;4757;59.334;18.034;2023-03-29T04:30:41;7.53;;;2.53;;
9436;SDS011;4757;59.334;18.034;2023-03-29T04:33:10;3.00;;;2.23;;
9436;SDS011;4757;59.334;18.034;2023-03-29T04:35:38;3.97;;;2.97;;
9436;SDS011;4757;59.334;18.034;2023-03-29T04:38:05;7.03;;;2.80;;
9436;SDS011;4757;59.334;18.034;2023-03-29T04:40:35;4.50;;;2.30;;
9436;SDS011;4757;59.334;18.034;2023-03-29T04:43:03;4.73;;;3.00;;
9436;SDS011;4757;59.334;18.034;2023-03-29T04:45:30;6.60;;;2.30;;
9436;SDS011;4757;59.334;18.034;2023-03-29T04:47:58;3.67;;;2.20;;
9436;SDS011;4757;59.334;18.034;2023-03-29T04:50:25;5.10;;;2.27;;
9436;SDS011;4757;59.334;18.034;2023-03-29T04:52:52;3.13;;;2.23;;
9436;SDS011;4757;59.334;18.034;2023-03-29T04:55:19;3.10;;;2.40;;
9436;SDS011;4757;59.334;18.034;2023-03-29T04:57:47;4.13;;;2.30;;
9436;SDS011;4757;59.334;18.034;2023-03-29T05:00:14;7.73;;;2.43;;
9436;SDS011;4757;59.334;18.034;2023-03-29T05:02:42;4.50;;;2.17;;
9436;SDS011;4757;59.334;18.034;2023-03-29T05:05:10;6.50;;;3.37;;
9436;SDS011;4757;59.334;18.034;2023-03-29T05:07:38;2.87;;;2.43;;
9436;SDS011;4757;59.334;18.034;2023-03-29T05:10:06;5.67;;;2.80;;
9436;SDS011;4757;59.334;18.034;2023-03-29T05:12:34;4.83;;;2.97;;
9436;SDS011;4757;59.334;18.034;2023-03-29T05:15:03;4.60;;;1.97;;
9436;SDS011;4757;59.334;18.034;2023-03-29T05:17:30;3.53;;;2.50;;
9436;SDS011;4757;59.334;18.034;2023-03-29T05:19:58;6.90;;;3.37;;
9436;SDS011;4757;59.334;18.034;2023-03-29T05:22:26;9.90;;;3.77;;
9436;SDS011;4757;59.334;18.034;2023-03-29T05:24:55;5.93;;;2.40;;
9436;SDS011;4757;59.334;18.034;2023-03-29T05:27:22;2.67;;;2.47;;
9436;SDS011;4757;59.334;18.034;2023-03-29T05:29:50;6.40;;;3.43;;
9436;SDS011;4757;59.334;18.034;2023-03-29T05:32:17;6.40;;;2.90;;
9436;SDS011;4757;59.334;18.034;2023-03-29T05:34:45;5.43;;;2.73;;
9436;SDS011;4757;59.334;18.034;2023-03-29T05:37:12;11.50;;;2.70;;
9436;SDS011;4757;59.334;18.034;2023-03-29T05:39:39;5.40;;;2.83;;
9436;SDS011;4757;59.334;18.034;2023-03-29T05:42:06;6.73;;;2.50;;
9436;SDS011;4757;59.334;18.034;2023-03-29T05:44:38;7.13;;;2.60;;
9436;SDS011;4757;59.334;18.034;2023-03-29T05:47:05;3.97;;;2.77;;
9436;SDS011;4757;59.334;18.034;2023-03-29T05:49:33;5.30;;;2.77;;
9436;SDS011;4757;59.334;18.034;2023-03-29T05:52:03;3.97;;;2.37;;
9436;SDS011;4757;59.334;18.034;2023-03-29T05:54:32;4.27;;;2.50;;
9436;SDS011;4757;59.334;18.034;2023-03-29T05:56:59;9.60;;;2.67;;
9436;SDS011;4757;59.334;18.034;2023-03-29T05:59:27;2.73;;;2.20;;
9436;SDS011;4757;59.334;18.034;2023-03-29T06:01:55;6.23;;;2.23;;
9436;SDS011;4757;59.334;18.034;2023-03-29T06:04:22;9.60;;;2.57;;
9436;SDS011;4757;59.334;18.034;2023-03-29T06:06:50;5.67;;;2.30;;
9436;SDS011;4757;59.334;18.034;2023-03-29T06:09:18;4.13;;;2.60;;
9436;SDS011;4757;59.334;18.034;2023-03-29T06:11:46;6.43;;;2.70;;
9436;SDS011;4757;59.334;18.034;2023-03-29T06:14:13;4.93;;;2.80;;
9436;SDS011;4757;59.334;18.034;2023-03-29T06:16:40;3.20;;;1.97;;
9436;SDS011;4757;59.334;18.034;2023-03-29T06:19:09;4.80;;;2.13;;
9436;SDS011;4757;59.334;18.034;2023-03-29T06:21:37;3.23;;;2.10;;
9436;SDS011;4757;59.334;18.034;2023-03-29T06:24:04;5.47;;;2.60;;
9436;SDS011;4757;59.334;18.034;2023-03-29T06:26:32;4.87;;;2.13;;
9436;SDS011;4757;59.334;18.034;2023-03-29T06:29:00;5.00;;;2.00;;
9436;SDS011;4757;59.334;18.034;2023-03-29T06:31:29;3.07;;;1.87;;
9436;SDS011;4757;59.334;18.034;2023-03-29T06:33:57;5.40;;;1.50;;
9436;SDS011;4757;59.334;18.034;2023-03-29T06:36:25;3.70;;;2.13;;
9436;SDS011;4757;59.334;18.034;2023-03-29T06:38:52;2.80;;;1.37;;
9436;SDS011;4757;59.334;18.034;2023-03-29T06:41:19;1.87;;;1.60;;
9436;SDS011;4757;59.334;18.034;2023-03-29T06:43:47;4.63;;;1.27;;
9436;SDS011;4757;59.334;18.034;2023-03-29T06:46:14;1.80;;;1.47;;
9436;SDS011;4757;59.334;18.034;2023-03-29T06:48:42;2.77;;;1.30;;
9436;SDS011;4757;59.334;18.034;2023-03-29T06:51:10;1.97;;;1.30;;
9436;SDS011;4757;59.334;18.034;2023-03-29T06:53:37;4.93;;;1.57;;
9436;SDS011;4757;59.334;18.034;2023-03-29T06:56:05;2.97;;;1.40;;
9436;SDS011;4757;59.334;18.034;2023-03-29T06:58:35;2.03;;;1.77;;
9436;SDS011;4757;59.334;18.034;2023-03-29T07:01:02;1.67;;;1.50;;
9436;SDS011;4757;59.334;18.034;2023-03-29T07:03:31;4.30;;;1.70;;
9436;SDS011;4757;59.334;18.034;2023-03-29T07:06:01;6.10;;;2.20;;
9436;SDS011;4757;59.334;18.034;2023-03-29T07:08:35;2.80;;;1.77;;
9436;SDS011;4757;59.334;18.034;2023-03-29T07:11:10;1.40;;;1.30;;
9436;SDS011;4757;59.334;18.034;2023-03-29T07:13:39;3.07;;;1.80;;
9436;SDS011;4757;59.334;18.034;2023-03-29T07:16:09;4.73;;;1.90;;
9436;SDS011;4757;59.334;18.034;2023-03-29T07:18:40;2.57;;;1.87;;
9436;SDS011;4757;59.334;18.034;2023-03-29T07:21:10;2.87;;;1.83;;
9436;SDS011;4757;59.334;18.034;2023-03-29T07:23:38;1.80;;;1.70;;
9436;SDS011;4757;59.334;18.034;2023-03-29T07:26:06;1.80;;;1.10;;
9436;SDS011;4757;59.334;18.034;2023-03-29T07:28:34;1.83;;;1.33;;
9436;SDS011;4757;59.334;18.034;2023-03-29T07:31:03;2.23;;;1.03;;
9436;SDS011;4757;59.334;18.034;2023-03-29T07:33:41;4.83;;;1.80;;
9436;SDS011;4757;59.334;18.034;2023-03-29T07:36:10;1.47;;;1.30;;
9436;SDS011;4757;59.334;18.034;2023-03-29T07:38:40;2.00;;;1.30;;
9436;SDS011;4757;59.334;18.034;2023-03-29T07:41:08;1.20;;;1.10;;
9436;SDS011;4757;59.334;18.034;2023-03-29T07:43:36;4.13;;;2.33;;
9436;SDS011;4757;59.334;18.034;2023-03-29T07:46:03;1.73;;;1.07;;
9436;SDS011;4757;59.334;18.034;2023-03-29T07:48:32;1.87;;;1.47;;
9436;SDS011;4757;59.334;18.034;2023-03-29T07:50:59;2.83;;;2.00;;
9436;SDS011;4757;59.334;18.034;2023-03-29T07:53:27;4.00;;;1.70;;
9436;SDS011;4757;59.334;18.034;2023-03-29T07:55:55;3.00;;;1.37;;
9436;SDS011;4757;59.334;18.034;2023-03-29T07:58:22;3.43;;;1.40;;
9436;SDS011;4757;59.334;18.034;2023-03-29T08:00:49;3.23;;;1.80;;
9436;SDS011;4757;59.334;18.034;2023-03-29T08:03:17;3.30;;;1.40;;
9436;SDS011;4757;59.334;18.034;2023-03-29T08:05:44;3.47;;;1.77;;
9436;SDS011;4757;59.334;18.034;2023-03-29T08:08:12;2.33;;;1.27;;
9436;SDS011;4757;59.334;18.034;2023-03-29T08:10:40;4.77;;;2.03;;
9436;SDS011;4757;59.334;18.034;2023-03-29T08:13:08;2.27;;;1.30;;
9436;SDS011;4757;59.334;18.034;2023-03-29T08:15:35;1.30;;;1.20;;
9436;SDS011;4757;59.334;18.034;2023-03-29T08:18:05;3.67;;;2.30;;
9436;SDS011;4757;59.334;18.034;2023-03-29T08:20:33;2.57;;;1.37;;
9436;SDS011;4757;59.334;18.034;2023-03-29T08:23:01;3.70;;;1.20;;
9436;SDS011;4757;59.334;18.034;2023-03-29T08:25:28;2.03;;;1.17;;
9436;SDS011;4757;59.334;18.034;2023-03-29T08:27:55;2.10;;;1.87;;
9436;SDS011;4757;59.334;18.034;2023-03-29T08:30:23;2.30;;;1.40;;
9436;SDS011;4757;59.334;18.034;2023-03-29T08:32:51;1.87;;;1.50;;
9436;SDS011;4757;59.334;18.034;2023-03-29T08:35:20;1.80;;;1.43;;
9436;SDS011;4757;59.334;18.034;2023-03-29T08:37:48;1.37;;;1.20;;
9436;SDS011;4757;59.334;18.034;2023-03-29T08:40:18;2.77;;;1.30;;
9436;SDS011;4757;59.334;18.034;2023-03-29T08:43:05;1.63;;;1.13;;
9436;SDS011;4757;59.334;18.034;2023-03-29T08:51:27;1.80;;;1.70;;
9436;SDS011;4757;59.334;18.034;2023-03-29T08:54:05;1.10;;;1.00;;
9436;SDS011;4757;59.334;18.034;2023-03-29T08:56:42;1.93;;;1.30;;
9436;SDS011;4757;59.334;18.034;2023-03-29T08:59:16;1.77;;;1.50;;
9436;SDS011;4757;59.334;18.034;2023-03-29T09:01:49;5.00;;;1.70;;
9436;SDS011;4757;59.334;18.034;2023-03-29T09:04:21;3.73;;;1.47;;
9436;SDS011;4757;59.334;18.034;2023-03-29T09:06:52;1.73;;;1.03;;
9436;SDS011;4757;59.334;18.034;2023-03-29T09:09:21;1.50;;;1.07;;
9436;SDS011;4757;59.334;18.034;2023-03-29T09:17:13;2.97;;;1.70;;
9436;SDS011;4757;59.334;18.034;2023-03-29T09:31:14;1.33;;;1.00;;
9436;SDS011;4757;59.334;18.034;2023-03-29T09:34:19;4.53;;;1.50;;
9436;SDS011;4757;59.334;18.034;2023-03-29T09:37:11;1.83;;;0.90;;
9436;SDS011;4757;59.334;18.034;2023-03-29T09:39:47;3.37;;;1.50;;
9436;SDS011;4757;59.334;18.034;2023-03-29T09:42:15;7.10;;;1.80;;
9436;SDS011;4757;59.334;18.034;2023-03-29T09:44:51;2.77;;;1.53;;
9436;SDS011;4757;59.334;18.034;2023-03-29T09:47:26;1.97;;;1.00;;
9436;SDS011;4757;59.334;18.034;2023-03-29T09:50:01;5.37;;;1.40;;
9436;SDS011;4757;59.334;18.034;2023-03-29T09:52:48;1.00;;;0.90;;
9436;SDS011;4757;59.334;18.034;2023-03-29T09:55:16;1.67;;;1.00;;
9436;SDS011;4757;59.334;18.034;2023-03-29T09:57:46;4.50;;;0.90;;
9436;SDS011;4757;59.334;18.034;2023-03-29T10:00:15;1.17;;;0.80;;
9436;SDS011;4757;59.334;18.034;2023-03-29T10:02:50;1.53;;;1.30;;
9436;SDS011;4757;59.334;18.034;2023-03-29T10:05:23;1.13;;;0.87;;
9436;SDS011;4757;59.334;18.034;2023-03-29T10:07:53;1.90;;;1.20;;
9436;SDS011;4757;59.334;18.034;2023-03-29T10:10:29;0.63;;;0.63;;
9436;SDS011;4757;59.334;18.034;2023-03-29T10:13:06;1.20;;;0.70;;
9436;SDS011;4757;59.334;18.034;2023-03-29T10:15:41;1.57;;;1.17;;
9436;SDS011;4757;59.334;18.034;2023-03-29T10:18:10;2.30;;;1.37;;
9436;SDS011;4757;59.334;18.034;2023-03-29T10:20:39;1.50;;;0.97;;
9436;SDS011;4757;59.334;18.034;2023-03-29T10:23:07;2.50;;;1.33;;
9436;SDS011;4757;59.334;18.034;2023-03-29T10:25:38;0.80;;;0.80;;
9436;SDS011;4757;59.334;18.034;2023-03-29T10:28:12;4.23;;;1.10;;
9436;SDS011;4757;59.334;18.034;2023-03-29T10:30:43;2.17;;;0.77;;
9436;SDS011;4757;59.334;18.034;2023-03-29T10:33:18;0.90;;;0.90;;
9436;SDS011;4757;59.334;18.034;2023-03-29T10:35:49;0.97;;;0.87;;
9436;SDS011;4757;59.334;18.034;2023-03-29T10:38:18;1.00;;;0.87;;
9436;SDS011;4757;59.334;18.034;2023-03-29T10:40:48;3.97;;;1.00;;
9436;SDS011;4757;59.334;18.034;2023-03-29T10:45:55;2.93;;;1.20;;
9436;SDS011;4757;59.334;18.034;2023-03-29T10:48:30;1.83;;;1.00;;
9436;SDS011;4757;59.334;18.034;2023-03-29T10:51:01;3.80;;;1.30;;
9436;SDS011;4757;59.334;18.034;2023-03-29T10:53:31;2.20;;;1.03;;
9436;SDS011;4757;59.334;18.034;2023-03-29T10:59:06;0.60;;;0.60;;
9436;SDS011;4757;59.334;18.034;2023-03-29T11:04:27;5.27;;;1.90;;
9436;SDS011;4757;59.334;18.034;2023-03-29T11:18:39;1.67;;;1.27;;
9436;SDS011;4757;59.334;18.034;2023-03-29T11:37:44;3.77;;;1.53;;
9436;SDS011;4757;59.334;18.034;2023-03-29T11:43:12;2.97;;;1.83;;
9436;SDS011;4757;59.334;18.034;2023-03-29T11:45:47;2.73;;;1.80;;
9436;SDS011;4757;59.334;18.034;2023-03-29T11:48:24;3.70;;;1.37;;
9436;SDS011;4757;59.334;18.034;2023-03-29T11:51:13;3.33;;;1.30;;
9436;SDS011;4757;59.334;18.034;2023-03-29T11:53:53;2.53;;;1.60;;
9436;SDS011;4757;59.334;18.034;2023-03-29T11:56:41;3.33;;;2.13;;
9436;SDS011;4757;59.334;18.034;2023-03-29T11:59:18;3.73;;;1.60;;
9436;SDS011;4757;59.334;18.034;2023-03-29T12:01:58;1.27;;;1.10;;
9436;SDS011;4757;59.334;18.034;2023-03-29T12:04:40;1.57;;;0.83;;
9436;SDS011;4757;59.334;18.034;2023-03-29T12:07:15;2.00;;;1.23;;
9436;SDS011;4757;59.334;18.034;2023-03-29T12:09:50;3.23;;;1.53;;
9436;SDS011;4757;59.334;18.034;2023-03-29T12:12:23;2.03;;;1.33;;
9436;SDS011;4757;59.334;18.034;2023-03-29T12:17:48;2.00;;;1.50;;
9436;SDS011;4757;59.334;18.034;2023-03-29T12:20:30;4.20;;;1.80;;
9436;SDS011;4757;59.334;18.034;2023-03-29T12:23:05;1.33;;;1.20;;
9436;SDS011;4757;59.334;18.034;2023-03-29T12:34:03;1.53;;;1.00;;
9436;SDS011;4757;59.334;18.034;2023-03-29T12:37:16;3.70;;;1.40;;
9436;SDS011;4757;59.334;18.034;2023-03-29T12:39:35;4.07;;;1.50;;
9436;SDS011;4757;59.334;18.034;2023-03-29T12:42:11;2.63;;;1.80;;
9436;SDS011;4757;59.334;18.034;2023-03-29T12:44:45;1.77;;;1.47;;
9436;SDS011;4757;59.334;18.034;2023-03-29T12:47:32;0.97;;;0.90;;
9436;SDS011;4757;59.334;18.034;2023-03-29T12:50:22;2.93;;;1.20;;
9436;SDS011;4757;59.334;18.034;2023-03-29T12:58:21;3.77;;;1.40;;
9436;SDS011;4757;59.334;18.034;2023-03-29T13:06:10;1.77;;;1.27;;
9436;SDS011;4757;59.334;18.034;2023-03-29T13:08:42;1.17;;;0.90;;
9436;SDS011;4757;59.334;18.034;2023-03-29T13:11:24;1.83;;;1.40;;
9436;SDS011;4757;59.334;18.034;2023-03-29T13:13:54;2.90;;;1.60;;
9436;SDS011;4757;59.334;18.034;2023-03-29T13:16:32;0.93;;;0.90;;
9436;SDS011;4757;59.334;18.034;2023-03-29T13:24:37;2.07;;;1.10;;
9436;SDS011;4757;59.334;18.034;2023-03-29T13:43:47;1.93;;;1.20;;
9436;SDS011;4757;59.334;18.034;2023-03-29T13:49:19;1.57;;;1.30;;
9436;SDS011;4757;59.334;18.034;2023-03-29T13:54:49;2.83;;;1.07;;
9436;SDS011;4757;59.334;18.034;2023-03-29T14:00:15;1.20;;;1.00;;
9436;SDS011;4757;59.334;18.034;2023-03-29T14:02:58;1.40;;;1.30;;
9436;SDS011;4757;59.334;18.034;2023-03-29T14:05:28;3.60;;;1.70;;
9436;SDS011;4757;59.334;18.034;2023-03-29T14:08:09;6.67;;;1.60;;
9436;SDS011;4757;59.334;18.034;2023-03-29T14:10:42;1.83;;;1.53;;
9436;SDS011;4757;59.334;18.034;2023-03-29T14:13:14;1.57;;;1.40;;
9436;SDS011;4757;59.334;18.034;2023-03-29T14:18:36;1.23;;;1.00;;
9436;SDS011;4757;59.334;18.034;2023-03-29T14:21:09;1.67;;;1.40;;
9436;SDS011;4757;59.334;18.034;2023-03-29T14:23:38;7.73;;;2.80;;
9436;SDS011;4757;59.334;18.034;2023-03-29T14:26:12;4.77;;;1.40;;
9436;SDS011;4757;59.334;18.034;2023-03-29T14:28:48;2.50;;;1.60;;
9436;SDS011;4757;59.334;18.034;2023-03-29T14:31:23;1.10;;;1.00;;
9436;SDS011;4757;59.334;18.034;2023-03-29T14:33:55;2.97;;;1.17;;
9436;SDS011;4757;59.334;18.034;2023-03-29T14:36:25;1.70;;;1.40;;
9436;SDS011;4757;59.334;18.034;2023-03-29T14:39:00;2.63;;;1.97;;
9436;SDS011;4757;59.334;18.034;2023-03-29T14:41:34;2.47;;;1.20;;
9436;SDS011;4757;59.334;18.034;2023-03-29T14:44:03;1.17;;;0.90;;
9436;SDS011;4757;59.334;18.034;2023-03-29T14:46:33;1.00;;;1.00;;
9436;SDS011;4757;59.334;18.034;2023-03-29T14:49:02;2.37;;;1.10;;
9436;SDS011;4757;59.334;18.034;2023-03-29T14:51:30;2.90;;;1.23;;
9436;SDS011;4757;59.334;18.034;2023-03-29T14:53:58;1.67;;;1.17;;
9436;SDS011;4757;59.334;18.034;2023-03-29T14:56:29;2.67;;;1.00;;
9436;SDS011;4757;59.334;18.034;2023-03-29T14:58:59;2.67;;;1.20;;
9436;SDS011;4757;59.334;18.034;2023-03-29T15:01:29;2.57;;;1.23;;
9436;SDS011;4757;59.334;18.034;2023-03-29T15:04:01;2.70;;;1.10;;
9436;SDS011;4757;59.334;18.034;2023-03-29T15:06:37;1.03;;;0.90;;
9436;SDS011;4757;59.334;18.034;2023-03-29T15:09:13;1.37;;;1.20;;
9436;SDS011;4757;59.334;18.034;2023-03-29T15:11:52;0.97;;;0.93;;
9436;SDS011;4757;59.334;18.034;2023-03-29T15:14:22;1.23;;;1.13;;
9436;SDS011;4757;59.334;18.034;2023-03-29T15:16:52;0.93;;;0.93;;
9436;SDS011;4757;59.334;18.034;2023-03-29T15:19:27;1.60;;;1.50;;
9436;SDS011;4757;59.334;18.034;2023-03-29T15:21:54;5.77;;;1.57;;
9436;SDS011;4757;59.334;18.034;2023-03-29T15:24:29;1.73;;;1.57;;
9436;SDS011;4757;59.334;18.034;2023-03-29T15:27:02;3.30;;;1.33;;
9436;SDS011;4757;59.334;18.034;2023-03-29T15:29:37;4.53;;;1.40;;
9436;SDS011;4757;59.334;18.034;2023-03-29T15:32:19;1.40;;;0.90;;
9436;SDS011;4757;59.334;18.034;2023-03-29T15:35:01;3.50;;;1.90;;
9436;SDS011;4757;59.334;18.034;2023-03-29T15:37:30;3.33;;;1.90;;
9436;SDS011;4757;59.334;18.034;2023-03-29T15:39:57;0.90;;;0.90;;
9436;SDS011;4757;59.334;18.034;2023-03-29T15:42:24;2.70;;;1.57;;
9436;SDS011;4757;59.334;18.034;2023-03-29T15:44:53;1.27;;;0.90;;
9436;SDS011;4757;59.334;18.034;2023-03-29T15:47:21;1.07;;;1.00;;
9436;SDS011;4757;59.334;18.034;2023-03-29T15:49:49;1.23;;;0.93;;
9436;SDS011;4757;59.334;18.034;2023-03-29T15:52:17;3.07;;;1.63;;
9436;SDS011;4757;59.334;18.034;2023-03-29T15:54:44;1.70;;;1.20;;
9436;SDS011;4757;59.334;18.034;2023-03-29T15:57:12;2.90;;;1.00;;
9436;SDS011;4757;59.334;18.034;2023-03-29T15:59:41;1.40;;;1.30;;
9436;SDS011;4757;59.334;18.034;2023-03-29T16:02:13;1.30;;;1.20;;
9436;SDS011;4757;59.334;18.034;2023-03-29T16:04:42;1.50;;;1.40;;
9436;SDS011;4757;59.334;18.034;2023-03-29T16:07:18;1.73;;;1.50;;
9436;SDS011;4757;59.334;18.034;2023-03-29T16:09:46;1.83;;;1.53;;
9436;SDS011;4757;59.334;18.034;2023-03-29T16:12:13;1.50;;;1.10;;
9436;SDS011;4757;59.334;18.034;2023-03-29T16:14:41;1.03;;;1.00;;
9436;SDS011;4757;59.334;18.034;2023-03-29T16:17:09;2.60;;;1.50;;
9436;SDS011;4757;59.334;18.034;2023-03-29T16:19:36;0.70;;;0.60;;
9436;SDS011;4757;59.334;18.034;2023-03-29T16:22:03;4.13;;;0.90;;
9436;SDS011;4757;59.334;18.034;2023-03-29T16:24:33;1.43;;;1.20;;
9436;SDS011;4757;59.334;18.034;2023-03-29T16:27:01;1.63;;;1.07;;
9436;SDS011;4757;59.334;18.034;2023-03-29T16:29:30;2.70;;;1.00;;
9436;SDS011;4757;59.334;18.034;2023-03-29T16:31:57;1.83;;;1.50;;
9436;SDS011;4757;59.334;18.034;2023-03-29T16:34:26;1.47;;;1.13;;
9436;SDS011;4757;59.334;18.034;2023-03-29T16:36:53;2.20;;;1.50;;
9436;SDS011;4757;59.334;18.034;2023-03-29T16:39:24;3.17;;;1.70;;
9436;SDS011;4757;59.334;18.034;2023-03-29T16:41:52;1.60;;;1.07;;
9436;SDS011;4757;59.334;18.034;2023-03-29T16:44:20;3.10;;;1.53;;
9436;SDS011;4757;59.334;18.034;2023-03-29T16:46:49;1.97;;;1.10;;
9436;SDS011;4757;59.334;18.034;2023-03-29T16:49:21;2.57;;;1.40;;
9436;SDS011;4757;59.334;18.034;2023-03-29T16:51:49;2.57;;;1.47;;
9436;SDS011;4757;59.334;18.034;2023-03-29T16:54:17;2.27;;;1.00;;
9436;SDS011;4757;59.334;18.034;2023-03-29T16:56:45;1.73;;;1.40;;
9436;SDS011;4757;59.334;18.034;2023-03-29T16:59:12;0.83;;;0.83;;
9436;SDS011;4757;59.334;18.034;2023-03-29T17:01:41;1.50;;;1.40;;
9436;SDS011;4757;59.334;18.034;2023-03-29T17:04:08;3.03;;;1.77;;
9436;SDS011;4757;59.334;18.034;2023-03-29T17:06:39;2.00;;;1.50;;
9436;SDS011;4757;59.334;18.034;2023-03-29T17:09:07;4.43;;;2.97;;
9436;SDS011;4757;59.334;18.034;2023-03-29T17:11:35;2.70;;;1.80;;
9436;SDS011;4757;59.334;18.034;2023-03-29T17:14:02;1.60;;;1.20;;
9436;SDS011;4757;59.334;18.034;2023-03-29T17:16:29;3.30;;;1.40;;
9436;SDS011;4757;59.334;18.034;2023-03-29T17:18:57;2.13;;;1.50;;
9436;SDS011;4757;59.334;18.034;2023-03-29T17:21:27;1.57;;;1.23;;
9436;SDS011;4757;59.334;18.034;2023-03-29T17:23:56;2.93;;;1.77;;
9436;SDS011;4757;59.334;18.034;2023-03-29T17:26:23;4.60;;;1.30;;
9436;SDS011;4757;59.334;18.034;2023-03-29T17:28:51;1.77;;;1.47;;
9436;SDS011;4757;59.334;18.034;2023-03-29T17:31:18;3.63;;;1.57;;
9436;SDS011;4757;59.334;18.034;2023-03-29T17:33:46;2.57;;;1.40;;
9436;SDS011;4757;59.334;18.034;2023-03-29T17:36:15;1.30;;;1.13;;
9436;SDS011;4757;59.334;18.034;2023-03-29T17:38:44;1.40;;;1.30;;
9436;SDS011;4757;59.334;18.034;2023-03-29T17:41:14;3.00;;;1.33;;
9436;SDS011;4757;59.334;18.034;2023-03-29T17:43:41;1.93;;;1.50;;
9436;SDS011;4757;59.334;18.034;2023-03-29T17:46:09;1.73;;;1.10;;